sensor_id;sensor_type;location;lat;lon;timestamp;temperature;humidity
69225;DHT22;56333;51.306;17.056;2023-03-04T00:00:04;1.84;80.43
69225;DHT22;56333;51.306;17.056;2023-03-04T00:01:57;1.85;80.50
69225;DHT22;56333;51.306;17.056;2023-03-04T00:03:25;1.88;80.60
69225;DHT22;56333;51.306;17.056;2023-03-04T00:04:54;1.91;80.80
69225;DHT22;56333;51.306;17.056;2023-03-04T00:06:23;1.95;80.90
69225;DHT22;56333;51.306;17.056;2023-03-04T00:07:52;1.94;80.88
69225;DHT22;56333;51.306;17.056;2023-03-04T00:09:21;1.93;80.70
69225;DHT22;56333;51.306;17.056;2023-03-04T00:10:50;1.90;80.53
69225;DHT22;56333;51.306;17.056;2023-03-04T00:12:19;1.88;80.50
69225;DHT22;56333;51.306;17.056;2023-03-04T00:13:48;1.86;80.38
69225;DHT22;56333;51.306;17.056;2023-03-04T00:15:17;1.84;80.38
69225;DHT22;56333;51.306;17.056;2023-03-04T00:16:46;1.83;80.38
69225;DHT22;56333;51.306;17.056;2023-03-04T00:18:15;1.83;80.43
69225;DHT22;56333;51.306;17.056;2023-03-04T00:19:45;1.86;80.50
69225;DHT22;56333;51.306;17.056;2023-03-04T00:21:14;1.88;80.70
69225;DHT22;56333;51.306;17.056;2023-03-04T00:22:42;1.92;80.85
69225;DHT22;56333;51.306;17.056;2023-03-04T00:24:11;1.94;80.93
69225;DHT22;56333;51.306;17.056;2023-03-04T00:25:40;1.97;80.82
69225;DHT22;56333;51.306;17.056;2023-03-04T00:27:09;1.97;80.70
69225;DHT22;56333;51.306;17.056;2023-03-04T00:28:37;1.99;80.63
69225;DHT22;56333;51.306;17.056;2023-03-04T00:30:08;1.99;80.47
69225;DHT22;56333;51.306;17.056;2023-03-04T00:31:39;1.96;80.45
69225;DHT22;56333;51.306;17.056;2023-03-04T00:33:08;1.94;80.43
69225;DHT22;56333;51.306;17.056;2023-03-04T00:34:37;1.93;80.38
69225;DHT22;56333;51.306;17.056;2023-03-04T00:36:07;1.92;80.30
69225;DHT22;56333;51.306;17.056;2023-03-04T00:37:36;1.93;80.55
69225;DHT22;56333;51.306;17.056;2023-03-04T00:39:04;1.93;80.68
69225;DHT22;56333;51.306;17.056;2023-03-04T00:40:33;1.98;80.80
69225;DHT22;56333;51.306;17.056;2023-03-04T00:42:02;2.01;80.90
69225;DHT22;56333;51.306;17.056;2023-03-04T00:43:31;2.02;80.85
69225;DHT22;56333;51.306;17.056;2023-03-04T00:45:00;2.03;80.80
69225;DHT22;56333;51.306;17.056;2023-03-04T00:46:29;2.04;80.63
69225;DHT22;56333;51.306;17.056;2023-03-04T00:47:58;2.03;80.57
69225;DHT22;56333;51.306;17.056;2023-03-04T00:49:27;2.03;80.38
69225;DHT22;56333;51.306;17.056;2023-03-04T00:50:56;2.03;80.47
69225;DHT22;56333;51.306;17.056;2023-03-04T00:52:24;2.02;80.38
69225;DHT22;56333;51.306;17.056;2023-03-04T00:53:53;2.02;80.40
69225;DHT22;56333;51.306;17.056;2023-03-04T00:55:22;2.06;80.50
69225;DHT22;56333;51.306;17.056;2023-03-04T00:56:51;2.07;80.70
69225;DHT22;56333;51.306;17.056;2023-03-04T00:58:20;2.12;80.72
69225;DHT22;56333;51.306;17.056;2023-03-04T00:59:49;2.13;80.72
69225;DHT22;56333;51.306;17.056;2023-03-04T01:01:18;2.15;80.57
69225;DHT22;56333;51.306;17.056;2023-03-04T01:02:49;2.14;80.40
69225;DHT22;56333;51.306;17.056;2023-03-04T01:04:18;2.13;80.30
69225;DHT22;56333;51.306;17.056;2023-03-04T01:05:47;2.13;80.30
69225;DHT22;56333;51.306;17.056;2023-03-04T01:07:15;2.11;80.10
69225;DHT22;56333;51.306;17.056;2023-03-04T01:08:44;2.10;80.10
69225;DHT22;56333;51.306;17.056;2023-03-04T01:10:14;2.10;80.10
69225;DHT22;56333;51.306;17.056;2023-03-04T01:11:43;2.09;80.30
69225;DHT22;56333;51.306;17.056;2023-03-04T01:13:12;2.12;80.43
69225;DHT22;56333;51.306;17.056;2023-03-04T01:14:40;2.14;80.50
69225;DHT22;56333;51.306;17.056;2023-03-04T01:16:10;2.16;80.50
69225;DHT22;56333;51.306;17.056;2023-03-04T01:17:39;2.17;80.43
69225;DHT22;56333;51.306;17.056;2023-03-04T01:19:08;2.17;80.15
69225;DHT22;56333;51.306;17.056;2023-03-04T01:20:37;2.17;80.03
69225;DHT22;56333;51.306;17.056;2023-03-04T01:22:14;2.16;79.90
69225;DHT22;56333;51.306;17.056;2023-03-04T01:23:51;2.16;79.90
69225;DHT22;56333;51.306;17.056;2023-03-04T01:25:20;2.16;79.82
69225;DHT22;56333;51.306;17.056;2023-03-04T01:26:49;2.14;79.70
69225;DHT22;56333;51.306;17.056;2023-03-04T01:28:19;2.15;79.70
69225;DHT22;56333;51.306;17.056;2023-03-04T01:29:47;2.15;79.85
69225;DHT22;56333;51.306;17.056;2023-03-04T01:31:17;2.17;80.00
69225;DHT22;56333;51.306;17.056;2023-03-04T01:32:46;2.21;80.10
69225;DHT22;56333;51.306;17.056;2023-03-04T01:34:15;2.23;80.03
69225;DHT22;56333;51.306;17.056;2023-03-04T01:35:44;2.24;79.90
69225;DHT22;56333;51.306;17.056;2023-03-04T01:37:13;2.24;79.65
69225;DHT22;56333;51.306;17.056;2023-03-04T01:38:43;2.24;79.47
69225;DHT22;56333;51.306;17.056;2023-03-04T01:40:13;2.23;79.38
69225;DHT22;56333;51.306;17.056;2023-03-04T01:41:43;2.24;79.40
69225;DHT22;56333;51.306;17.056;2023-03-04T01:43:15;2.22;79.15
69225;DHT22;56333;51.306;17.056;2023-03-04T01:44:48;2.21;79.10
69225;DHT22;56333;51.306;17.056;2023-03-04T01:46:18;2.20;79.13
69225;DHT22;56333;51.306;17.056;2023-03-04T01:47:47;2.19;78.93
69225;DHT22;56333;51.306;17.056;2023-03-04T01:49:17;2.18;78.93
69225;DHT22;56333;51.306;17.056;2023-03-04T01:50:47;2.17;79.10
69225;DHT22;56333;51.306;17.056;2023-03-04T01:52:16;2.18;79.25
69225;DHT22;56333;51.306;17.056;2023-03-04T01:53:46;2.18;78.95
69225;DHT22;56333;51.306;17.056;2023-03-04T01:55:19;2.19;78.97
69225;DHT22;56333;51.306;17.056;2023-03-04T01:56:49;2.17;78.82
69225;DHT22;56333;51.306;17.056;2023-03-04T01:58:18;2.16;78.70
69225;DHT22;56333;51.306;17.056;2023-03-04T01:59:52;2.15;78.60
69225;DHT22;56333;51.306;17.056;2023-03-04T02:01:48;2.10;78.47
69225;DHT22;56333;51.306;17.056;2023-03-04T02:03:19;2.08;78.50
69225;DHT22;56333;51.306;17.056;2023-03-04T02:04:47;2.07;78.45
69225;DHT22;56333;51.306;17.056;2023-03-04T02:06:16;2.08;78.55
69225;DHT22;56333;51.306;17.056;2023-03-04T02:07:46;2.08;78.80
69225;DHT22;56333;51.306;17.056;2023-03-04T02:09:16;2.11;78.95
69225;DHT22;56333;51.306;17.056;2023-03-04T02:10:46;2.11;78.78
69225;DHT22;56333;51.306;17.056;2023-03-04T02:12:15;2.11;78.63
69225;DHT22;56333;51.306;17.056;2023-03-04T02:13:44;2.12;78.47
69225;DHT22;56333;51.306;17.056;2023-03-04T02:15:13;2.10;78.20
69225;DHT22;56333;51.306;17.056;2023-03-04T02:16:42;2.10;78.22
69225;DHT22;56333;51.306;17.056;2023-03-04T02:18:15;2.10;78.10
69225;DHT22;56333;51.306;17.056;2023-03-04T02:19:48;2.06;78.00
69225;DHT22;56333;51.306;17.056;2023-03-04T02:21:24;2.05;78.13
69225;DHT22;56333;51.306;17.056;2023-03-04T02:23:00;2.07;78.40
69225;DHT22;56333;51.306;17.056;2023-03-04T02:24:40;2.09;78.60
69225;DHT22;56333;51.306;17.056;2023-03-04T02:26:15;2.12;78.80
69225;DHT22;56333;51.306;17.056;2023-03-04T02:27:48;2.14;78.70
69225;DHT22;56333;51.306;17.056;2023-03-04T02:29:17;2.16;78.63
69225;DHT22;56333;51.306;17.056;2023-03-04T02:30:46;2.17;78.38
69225;DHT22;56333;51.306;17.056;2023-03-04T02:32:16;2.16;77.97
69225;DHT22;56333;51.306;17.056;2023-03-04T02:33:44;2.16;77.90
69225;DHT22;56333;51.306;17.056;2023-03-04T02:35:16;2.15;77.80
69225;DHT22;56333;51.306;17.056;2023-03-04T02:36:47;2.14;77.65
69225;DHT22;56333;51.306;17.056;2023-03-04T02:38:18;2.11;77.57
69225;DHT22;56333;51.306;17.056;2023-03-04T02:39:47;2.10;77.53
69225;DHT22;56333;51.306;17.056;2023-03-04T02:41:18;2.10;77.70
69225;DHT22;56333;51.306;17.056;2023-03-04T02:42:49;2.12;77.93
69225;DHT22;56333;51.306;17.056;2023-03-04T02:44:19;2.13;77.93
69225;DHT22;56333;51.306;17.056;2023-03-04T02:45:51;2.14;77.88
69225;DHT22;56333;51.306;17.056;2023-03-04T02:47:19;2.16;77.80
69225;DHT22;56333;51.306;17.056;2023-03-04T02:48:48;2.17;77.68
69225;DHT22;56333;51.306;17.056;2023-03-04T02:50:18;2.17;77.40
69225;DHT22;56333;51.306;17.056;2023-03-04T02:51:48;2.13;77.35
69225;DHT22;56333;51.306;17.056;2023-03-04T02:53:23;2.12;77.30
69225;DHT22;56333;51.306;17.056;2023-03-04T02:54:53;2.10;77.25
69225;DHT22;56333;51.306;17.056;2023-03-04T02:56:23;2.10;77.50
69225;DHT22;56333;51.306;17.056;2023-03-04T02:57:52;2.13;77.70
69225;DHT22;56333;51.306;17.056;2023-03-04T02:59:22;2.15;77.72
69225;DHT22;56333;51.306;17.056;2023-03-04T03:00:51;2.16;77.65
69225;DHT22;56333;51.306;17.056;2023-03-04T03:02:21;2.16;77.40
69225;DHT22;56333;51.306;17.056;2023-03-04T03:03:51;2.18;77.30
69225;DHT22;56333;51.306;17.056;2023-03-04T03:05:20;2.16;77.20
69225;DHT22;56333;51.306;17.056;2023-03-04T03:06:51;2.15;77.13
69225;DHT22;56333;51.306;17.056;2023-03-04T03:08:19;2.13;77.03
69225;DHT22;56333;51.306;17.056;2023-03-04T03:09:48;2.13;77.05
69225;DHT22;56333;51.306;17.056;2023-03-04T03:11:16;2.11;77.10
69225;DHT22;56333;51.306;17.056;2023-03-04T03:12:45;2.11;77.15
69225;DHT22;56333;51.306;17.056;2023-03-04T03:14:14;2.13;77.32
69225;DHT22;56333;51.306;17.056;2023-03-04T03:15:44;2.15;77.60
69225;DHT22;56333;51.306;17.056;2023-03-04T03:17:13;2.18;77.65
69225;DHT22;56333;51.306;17.056;2023-03-04T03:18:42;2.20;77.65
69225;DHT22;56333;51.306;17.056;2023-03-04T03:20:14;2.22;77.57
69225;DHT22;56333;51.306;17.056;2023-03-04T03:21:43;2.23;77.40
69225;DHT22;56333;51.306;17.056;2023-03-04T03:23:13;2.24;77.07
69225;DHT22;56333;51.306;17.056;2023-03-04T03:24:43;2.22;76.70
69225;DHT22;56333;51.306;17.056;2023-03-04T03:26:12;2.21;76.63
69225;DHT22;56333;51.306;17.056;2023-03-04T03:27:43;2.19;76.57
69225;DHT22;56333;51.306;17.056;2023-03-04T03:29:12;2.16;76.57
69225;DHT22;56333;51.306;17.056;2023-03-04T03:30:41;2.15;76.68
69225;DHT22;56333;51.306;17.056;2023-03-04T03:32:10;2.14;76.82
69225;DHT22;56333;51.306;17.056;2023-03-04T03:33:39;2.17;77.13
69225;DHT22;56333;51.306;17.056;2023-03-04T03:35:08;2.20;77.30
69225;DHT22;56333;51.306;17.056;2023-03-04T03:36:37;2.24;77.45
69225;DHT22;56333;51.306;17.056;2023-03-04T03:38:06;2.27;77.20
69225;DHT22;56333;51.306;17.056;2023-03-04T03:39:34;2.28;76.85
69225;DHT22;56333;51.306;17.056;2023-03-04T03:41:03;2.27;76.55
69225;DHT22;56333;51.306;17.056;2023-03-04T03:42:32;2.23;76.35
69225;DHT22;56333;51.306;17.056;2023-03-04T03:44:01;2.22;76.35
69225;DHT22;56333;51.306;17.056;2023-03-04T03:45:30;2.18;76.35
69225;DHT22;56333;51.306;17.056;2023-03-04T03:46:59;2.17;76.35
69225;DHT22;56333;51.306;17.056;2023-03-04T03:48:28;2.17;76.38
69225;DHT22;56333;51.306;17.056;2023-03-04T03:49:57;2.15;76.28
69225;DHT22;56333;51.306;17.056;2023-03-04T03:51:26;2.16;76.45
69225;DHT22;56333;51.306;17.056;2023-03-04T03:52:55;2.18;76.68
69225;DHT22;56333;51.306;17.056;2023-03-04T03:54:24;2.20;76.85
69225;DHT22;56333;51.306;17.056;2023-03-04T03:55:53;2.23;76.80
69225;DHT22;56333;51.306;17.056;2023-03-04T03:57:22;2.23;76.55
69225;DHT22;56333;51.306;17.056;2023-03-04T03:58:51;2.23;76.43
69225;DHT22;56333;51.306;17.056;2023-03-04T04:00:21;2.24;76.25
69225;DHT22;56333;51.306;17.056;2023-03-04T04:01:49;2.20;76.20
69225;DHT22;56333;51.306;17.056;2023-03-04T04:03:18;2.19;76.18
69225;DHT22;56333;51.306;17.056;2023-03-04T04:04:48;2.17;76.15
69225;DHT22;56333;51.306;17.056;2023-03-04T04:06:17;2.15;76.18
69225;DHT22;56333;51.306;17.056;2023-03-04T04:07:45;2.15;76.25
69225;DHT22;56333;51.306;17.056;2023-03-04T04:09:14;2.15;76.32
69225;DHT22;56333;51.306;17.056;2023-03-04T04:10:43;2.18;76.50
69225;DHT22;56333;51.306;17.056;2023-03-04T04:12:13;2.19;76.72
69225;DHT22;56333;51.306;17.056;2023-03-04T04:13:43;2.23;76.85
69225;DHT22;56333;51.306;17.056;2023-03-04T04:15:12;2.24;76.70
69225;DHT22;56333;51.306;17.056;2023-03-04T04:16:41;2.28;76.55
69225;DHT22;56333;51.306;17.056;2023-03-04T04:18:10;2.28;76.40
69225;DHT22;56333;51.306;17.056;2023-03-04T04:19:39;2.29;76.20
69225;DHT22;56333;51.306;17.056;2023-03-04T04:21:08;2.29;76.15
69225;DHT22;56333;51.306;17.056;2023-03-04T04:22:36;2.28;76.03
69225;DHT22;56333;51.306;17.056;2023-03-04T04:24:05;2.28;76.00
69225;DHT22;56333;51.306;17.056;2023-03-04T04:25:35;2.27;75.93
69225;DHT22;56333;51.306;17.056;2023-03-04T04:27:03;2.26;75.78
69225;DHT22;56333;51.306;17.056;2023-03-04T04:28:32;2.23;75.78
69225;DHT22;56333;51.306;17.056;2023-03-04T04:30:01;2.23;76.05
69225;DHT22;56333;51.306;17.056;2023-03-04T04:31:32;2.26;76.35
69225;DHT22;56333;51.306;17.056;2023-03-04T04:33:00;2.28;76.50
69225;DHT22;56333;51.306;17.056;2023-03-04T04:34:29;2.31;76.50
69225;DHT22;56333;51.306;17.056;2023-03-04T04:35:59;2.34;76.28
69225;DHT22;56333;51.306;17.056;2023-03-04T04:37:28;2.35;76.07
69225;DHT22;56333;51.306;17.056;2023-03-04T04:38:58;2.35;75.90
69225;DHT22;56333;51.306;17.056;2023-03-04T04:40:27;2.34;75.90
69225;DHT22;56333;51.306;17.056;2023-03-04T04:41:56;2.33;75.78
69225;DHT22;56333;51.306;17.056;2023-03-04T04:43:25;2.34;75.70
69225;DHT22;56333;51.306;17.056;2023-03-04T04:44:54;2.33;75.60
69225;DHT22;56333;51.306;17.056;2023-03-04T04:46:23;2.32;75.60
69225;DHT22;56333;51.306;17.056;2023-03-04T04:47:53;2.29;75.50
69225;DHT22;56333;51.306;17.056;2023-03-04T04:49:23;2.27;75.57
69225;DHT22;56333;51.306;17.056;2023-03-04T04:50:55;2.29;75.85
69225;DHT22;56333;51.306;17.056;2023-03-04T04:52:25;2.31;76.10
69225;DHT22;56333;51.306;17.056;2023-03-04T04:53:54;2.32;76.20
69225;DHT22;56333;51.306;17.056;2023-03-04T04:55:25;2.37;76.20
69225;DHT22;56333;51.306;17.056;2023-03-04T04:56:54;2.38;76.07
69225;DHT22;56333;51.306;17.056;2023-03-04T04:58:23;2.38;75.80
69225;DHT22;56333;51.306;17.056;2023-03-04T04:59:51;2.39;75.70
69225;DHT22;56333;51.306;17.056;2023-03-04T05:01:20;2.39;75.47
69225;DHT22;56333;51.306;17.056;2023-03-04T05:02:50;2.39;75.47
69225;DHT22;56333;51.306;17.056;2023-03-04T05:04:19;2.38;75.28
69225;DHT22;56333;51.306;17.056;2023-03-04T05:05:48;2.37;75.22
69225;DHT22;56333;51.306;17.056;2023-03-04T05:07:16;2.35;75.20
69225;DHT22;56333;51.306;17.056;2023-03-04T05:08:45;2.35;75.22
69225;DHT22;56333;51.306;17.056;2023-03-04T05:10:14;2.34;75.50
69225;DHT22;56333;51.306;17.056;2023-03-04T05:11:43;2.36;75.82
69225;DHT22;56333;51.306;17.056;2023-03-04T05:13:12;2.39;75.95
69225;DHT22;56333;51.306;17.056;2023-03-04T05:14:42;2.42;75.90
69225;DHT22;56333;51.306;17.056;2023-03-04T05:16:11;2.45;75.80
69225;DHT22;56333;51.306;17.056;2023-03-04T05:17:40;2.47;75.55
69225;DHT22;56333;51.306;17.056;2023-03-04T05:19:08;2.47;75.25
69225;DHT22;56333;51.306;17.056;2023-03-04T05:20:37;2.46;75.30
69225;DHT22;56333;51.306;17.056;2023-03-04T05:22:06;2.47;75.22
69225;DHT22;56333;51.306;17.056;2023-03-04T05:23:36;2.46;75.03
69225;DHT22;56333;51.306;17.056;2023-03-04T05:25:08;2.45;74.93
69225;DHT22;56333;51.306;17.056;2023-03-04T05:26:37;2.44;74.95
69225;DHT22;56333;51.306;17.056;2023-03-04T05:28:07;2.45;74.93
69225;DHT22;56333;51.306;17.056;2023-03-04T05:29:38;2.42;75.07
69225;DHT22;56333;51.306;17.056;2023-03-04T05:31:10;2.44;75.22
69225;DHT22;56333;51.306;17.056;2023-03-04T05:32:39;2.45;75.35
69225;DHT22;56333;51.306;17.056;2023-03-04T05:34:09;2.48;75.65
69225;DHT22;56333;51.306;17.056;2023-03-04T05:35:38;2.51;75.53
69225;DHT22;56333;51.306;17.056;2023-03-04T05:37:09;2.53;75.32
69225;DHT22;56333;51.306;17.056;2023-03-04T05:38:38;2.54;75.07
69225;DHT22;56333;51.306;17.056;2023-03-04T05:40:10;2.54;74.93
69225;DHT22;56333;51.306;17.056;2023-03-04T05:41:39;2.54;74.90
69225;DHT22;56333;51.306;17.056;2023-03-04T05:43:08;2.53;74.72
69225;DHT22;56333;51.306;17.056;2023-03-04T05:44:38;2.52;74.65
69225;DHT22;56333;51.306;17.056;2023-03-04T05:46:07;2.50;74.70
69225;DHT22;56333;51.306;17.056;2023-03-04T05:47:39;2.49;74.72
69225;DHT22;56333;51.306;17.056;2023-03-04T05:49:09;2.48;74.72
69225;DHT22;56333;51.306;17.056;2023-03-04T05:50:38;2.49;74.95
69225;DHT22;56333;51.306;17.056;2023-03-04T05:52:06;2.51;75.18
69225;DHT22;56333;51.306;17.056;2023-03-04T05:53:36;2.54;75.28
69225;DHT22;56333;51.306;17.056;2023-03-04T05:55:06;2.55;75.13
69225;DHT22;56333;51.306;17.056;2023-03-04T05:56:36;2.57;75.00
69225;DHT22;56333;51.306;17.056;2023-03-04T05:58:05;2.57;74.80
69225;DHT22;56333;51.306;17.056;2023-03-04T05:59:34;2.56;74.55
69225;DHT22;56333;51.306;17.056;2023-03-04T06:01:03;2.57;74.60
69225;DHT22;56333;51.306;17.056;2023-03-04T06:02:33;2.57;74.55
69225;DHT22;56333;51.306;17.056;2023-03-04T06:04:02;2.55;74.45
69225;DHT22;56333;51.306;17.056;2023-03-04T06:05:31;2.54;74.47
69225;DHT22;56333;51.306;17.056;2023-03-04T06:06:59;2.52;74.65
69225;DHT22;56333;51.306;17.056;2023-03-04T06:08:28;2.54;74.93
69225;DHT22;56333;51.306;17.056;2023-03-04T06:09:57;2.56;75.15
69225;DHT22;56333;51.306;17.056;2023-03-04T06:11:26;2.58;75.03
69225;DHT22;56333;51.306;17.056;2023-03-04T06:12:56;2.62;74.85
69225;DHT22;56333;51.306;17.056;2023-03-04T06:14:25;2.63;74.72
69225;DHT22;56333;51.306;17.056;2023-03-04T06:15:58;2.63;74.63
69225;DHT22;56333;51.306;17.056;2023-03-04T06:17:27;2.64;74.50
69225;DHT22;56333;51.306;17.056;2023-03-04T06:18:56;2.64;74.50
69225;DHT22;56333;51.306;17.056;2023-03-04T06:20:25;2.64;74.50
69225;DHT22;56333;51.306;17.056;2023-03-04T06:21:54;2.64;74.43
69225;DHT22;56333;51.306;17.056;2023-03-04T06:23:23;2.63;74.40
69225;DHT22;56333;51.306;17.056;2023-03-04T06:24:54;2.61;74.50
69225;DHT22;56333;51.306;17.056;2023-03-04T06:26:23;2.63;74.75
69225;DHT22;56333;51.306;17.056;2023-03-04T06:27:52;2.64;75.03
69225;DHT22;56333;51.306;17.056;2023-03-04T06:29:22;2.66;75.22
69225;DHT22;56333;51.306;17.056;2023-03-04T06:30:53;2.71;75.13
69225;DHT22;56333;51.306;17.056;2023-03-04T06:32:24;2.75;74.93
69225;DHT22;56333;51.306;17.056;2023-03-04T06:33:53;2.74;74.72
69225;DHT22;56333;51.306;17.056;2023-03-04T06:35:21;2.74;74.68
69225;DHT22;56333;51.306;17.056;2023-03-04T06:36:50;2.75;74.65
69225;DHT22;56333;51.306;17.056;2023-03-04T06:38:19;2.74;74.60
69225;DHT22;56333;51.306;17.056;2023-03-04T06:39:48;2.74;74.60
69225;DHT22;56333;51.306;17.056;2023-03-04T06:41:17;2.72;74.53
69225;DHT22;56333;51.306;17.056;2023-03-04T06:42:45;2.72;74.72
69225;DHT22;56333;51.306;17.056;2023-03-04T06:44:14;2.75;75.07
69225;DHT22;56333;51.306;17.056;2023-03-04T06:45:43;2.77;75.28
69225;DHT22;56333;51.306;17.056;2023-03-04T06:47:12;2.79;75.22
69225;DHT22;56333;51.306;17.056;2023-03-04T06:48:42;2.84;75.07
69225;DHT22;56333;51.306;17.056;2023-03-04T06:50:12;2.84;74.90
69225;DHT22;56333;51.306;17.056;2023-03-04T06:51:41;2.86;74.80
69225;DHT22;56333;51.306;17.056;2023-03-04T06:53:10;2.85;74.85
69225;DHT22;56333;51.306;17.056;2023-03-04T06:54:39;2.86;74.75
69225;DHT22;56333;51.306;17.056;2023-03-04T06:56:09;2.85;74.78
69225;DHT22;56333;51.306;17.056;2023-03-04T06:57:40;2.84;74.75
69225;DHT22;56333;51.306;17.056;2023-03-04T06:59:09;2.84;74.80
69225;DHT22;56333;51.306;17.056;2023-03-04T07:00:38;2.85;75.05
69225;DHT22;56333;51.306;17.056;2023-03-04T07:02:07;2.88;75.25
69225;DHT22;56333;51.306;17.056;2023-03-04T07:03:38;2.90;75.53
69225;DHT22;56333;51.306;17.056;2023-03-04T07:05:08;2.93;75.65
69225;DHT22;56333;51.306;17.056;2023-03-04T07:06:37;2.98;75.65
69225;DHT22;56333;51.306;17.056;2023-03-04T07:08:06;2.99;75.50
69225;DHT22;56333;51.306;17.056;2023-03-04T07:09:35;3.00;75.40
69225;DHT22;56333;51.306;17.056;2023-03-04T07:11:04;3.03;75.40
69225;DHT22;56333;51.306;17.056;2023-03-04T07:14:02;3.03;75.22
69225;DHT22;56333;51.306;17.056;2023-03-04T07:15:30;3.03;75.38
69225;DHT22;56333;51.306;17.056;2023-03-04T07:16:59;3.05;75.35
69225;DHT22;56333;51.306;17.056;2023-03-04T07:18:28;3.06;75.28
69225;DHT22;56333;51.306;17.056;2023-03-04T07:19:57;3.07;75.25
69225;DHT22;56333;51.306;17.056;2023-03-04T07:21:25;3.07;75.53
69225;DHT22;56333;51.306;17.056;2023-03-04T07:22:54;3.09;75.80
69225;DHT22;56333;51.306;17.056;2023-03-04T07:24:23;3.15;76.18
69225;DHT22;56333;51.306;17.056;2023-03-04T07:25:52;3.20;76.38
69225;DHT22;56333;51.306;17.056;2023-03-04T07:27:21;3.22;76.32
69225;DHT22;56333;51.306;17.056;2023-03-04T07:28:51;3.26;76.20
69225;DHT22;56333;51.306;17.056;2023-03-04T07:30:21;3.28;76.10
69225;DHT22;56333;51.306;17.056;2023-03-04T07:31:50;3.29;75.97
69225;DHT22;56333;51.306;17.056;2023-03-04T07:33:19;3.27;75.97
69225;DHT22;56333;51.306;17.056;2023-03-04T07:34:50;3.27;75.90
69225;DHT22;56333;51.306;17.056;2023-03-04T07:36:18;3.27;75.90
69225;DHT22;56333;51.306;17.056;2023-03-04T07:37:48;3.27;76.10
69225;DHT22;56333;51.306;17.056;2023-03-04T07:39:17;3.28;76.10
69225;DHT22;56333;51.306;17.056;2023-03-04T07:40:46;3.30;76.30
69225;DHT22;56333;51.306;17.056;2023-03-04T07:42:23;3.35;76.53
69225;DHT22;56333;51.306;17.056;2023-03-04T07:43:57;3.39;76.70
69225;DHT22;56333;51.306;17.056;2023-03-04T07:45:29;3.40;76.72
69225;DHT22;56333;51.306;17.056;2023-03-04T07:46:58;3.46;76.68
69225;DHT22;56333;51.306;17.056;2023-03-04T07:48:28;3.47;76.50
69225;DHT22;56333;51.306;17.056;2023-03-04T07:49:57;3.48;76.45
69225;DHT22;56333;51.306;17.056;2023-03-04T07:51:27;3.50;76.40
69225;DHT22;56333;51.306;17.056;2023-03-04T07:52:58;3.50;76.35
69225;DHT22;56333;51.306;17.056;2023-03-04T07:54:25;3.48;76.45
69225;DHT22;56333;51.306;17.056;2023-03-04T07:55:55;3.49;76.22
69225;DHT22;56333;51.306;17.056;2023-03-04T07:57:24;3.50;76.35
69225;DHT22;56333;51.306;17.056;2023-03-04T07:58:53;3.52;76.53
69225;DHT22;56333;51.306;17.056;2023-03-04T08:00:23;3.55;76.82
69225;DHT22;56333;51.306;17.056;2023-03-04T08:01:53;3.59;76.90
69225;DHT22;56333;51.306;17.056;2023-03-04T08:03:22;3.63;76.88
69225;DHT22;56333;51.306;17.056;2023-03-04T08:04:52;3.64;76.80
69225;DHT22;56333;51.306;17.056;2023-03-04T08:06:23;3.66;76.68
69225;DHT22;56333;51.306;17.056;2023-03-04T08:07:53;3.67;76.57
69225;DHT22;56333;51.306;17.056;2023-03-04T08:09:23;3.68;76.40
69225;DHT22;56333;51.306;17.056;2023-03-04T08:10:52;3.67;76.30
69225;DHT22;56333;51.306;17.056;2023-03-04T08:12:36;3.65;76.45
69225;DHT22;56333;51.306;17.056;2023-03-04T08:14:09;3.63;76.57
69225;DHT22;56333;51.306;17.056;2023-03-04T08:15:42;3.65;76.72
69225;DHT22;56333;51.306;17.056;2023-03-04T08:17:11;3.68;77.03
69225;DHT22;56333;51.306;17.056;2023-03-04T08:18:40;3.74;77.22
69225;DHT22;56333;51.306;17.056;2023-03-04T08:20:13;3.77;77.20
69225;DHT22;56333;51.306;17.056;2023-03-04T08:21:43;3.81;77.00
69225;DHT22;56333;51.306;17.056;2023-03-04T08:23:12;3.83;76.82
69225;DHT22;56333;51.306;17.056;2023-03-04T08:24:41;3.87;76.70
69225;DHT22;56333;51.306;17.056;2023-03-04T08:26:12;3.90;76.57
69225;DHT22;56333;51.306;17.056;2023-03-04T08:27:44;3.90;76.43
69225;DHT22;56333;51.306;17.056;2023-03-04T08:29:15;3.89;76.38
69225;DHT22;56333;51.306;17.056;2023-03-04T08:30:53;3.93;76.45
69225;DHT22;56333;51.306;17.056;2023-03-04T08:32:23;3.97;76.63
69225;DHT22;56333;51.306;17.056;2023-03-04T08:33:53;4.01;76.78
69225;DHT22;56333;51.306;17.056;2023-03-04T08:35:22;4.06;76.85
69225;DHT22;56333;51.306;17.056;2023-03-04T08:36:51;4.10;76.80
69225;DHT22;56333;51.306;17.056;2023-03-04T08:38:22;4.13;76.60
69225;DHT22;56333;51.306;17.056;2023-03-04T08:39:51;4.16;76.43
69225;DHT22;56333;51.306;17.056;2023-03-04T08:41:21;4.20;76.20
69225;DHT22;56333;51.306;17.056;2023-03-04T08:42:51;4.20;76.10
69225;DHT22;56333;51.306;17.056;2023-03-04T08:44:20;4.20;76.03
69225;DHT22;56333;51.306;17.056;2023-03-04T08:45:49;4.21;75.85
69225;DHT22;56333;51.306;17.056;2023-03-04T08:47:20;4.23;75.80
69225;DHT22;56333;51.306;17.056;2023-03-04T08:48:49;4.24;75.78
69225;DHT22;56333;51.306;17.056;2023-03-04T08:50:18;4.23;75.72
69225;DHT22;56333;51.306;17.056;2023-03-04T08:51:47;4.24;75.78
69225;DHT22;56333;51.306;17.056;2023-03-04T08:53:16;4.26;75.95
69225;DHT22;56333;51.306;17.056;2023-03-04T08:54:49;4.32;76.20
69225;DHT22;56333;51.306;17.056;2023-03-04T08:56:23;4.37;76.25
69225;DHT22;56333;51.306;17.056;2023-03-04T08:57:57;4.38;75.97
69225;DHT22;56333;51.306;17.056;2023-03-04T08:59:33;4.37;75.75
69225;DHT22;56333;51.306;17.056;2023-03-04T09:01:14;4.38;75.82
69225;DHT22;56333;51.306;17.056;2023-03-04T09:02:44;4.39;75.72
69225;DHT22;56333;51.306;17.056;2023-03-04T09:04:15;4.36;75.60
69225;DHT22;56333;51.306;17.056;2023-03-04T09:05:45;4.36;75.50
69225;DHT22;56333;51.306;17.056;2023-03-04T09:07:15;4.35;75.55
69225;DHT22;56333;51.306;17.056;2023-03-04T09:08:44;4.35;75.57
69225;DHT22;56333;51.306;17.056;2023-03-04T09:10:13;4.36;75.63
69225;DHT22;56333;51.306;17.056;2023-03-04T09:11:43;4.39;75.82
69225;DHT22;56333;51.306;17.056;2023-03-04T09:13:12;4.43;76.05
69225;DHT22;56333;51.306;17.056;2023-03-04T09:14:42;4.50;76.25
69225;DHT22;56333;51.306;17.056;2023-03-04T09:16:13;4.54;76.28
69225;DHT22;56333;51.306;17.056;2023-03-04T09:17:42;4.59;75.97
69225;DHT22;56333;51.306;17.056;2023-03-04T09:19:11;4.63;75.90
69225;DHT22;56333;51.306;17.056;2023-03-04T09:20:42;4.66;75.70
69225;DHT22;56333;51.306;17.056;2023-03-04T09:22:12;4.67;75.40
69225;DHT22;56333;51.306;17.056;2023-03-04T09:23:41;4.69;75.35
69225;DHT22;56333;51.306;17.056;2023-03-04T09:25:12;4.72;75.30
69225;DHT22;56333;51.306;17.056;2023-03-04T09:26:41;4.75;75.18
69225;DHT22;56333;51.306;17.056;2023-03-04T09:28:10;4.75;75.03